sensor_id;sensor_type;location;lat;lon;timestamp;temperature;humidity
76577;DHT22;65441;44.748;37.600;2024-01-27T00:01:41;8.04;78.11
76577;DHT22;65441;44.748;37.600;2024-01-27T00:04:09;7.99;78.33
76577;DHT22;65441;44.748;37.600;2024-01-27T00:06:39;8.31;81.11
76577;DHT22;65441;44.748;37.600;2024-01-27T00:09:08;8.33;78.26
76577;DHT22;65441;44.748;37.600;2024-01-27T00:11:35;8.63;80.45
76577;DHT22;65441;44.748;37.600;2024-01-27T00:14:03;8.13;75.95
76577;DHT22;65441;44.748;37.600;2024-01-27T00:16:32;7.59;75.28
76577;DHT22;65441;44.748;37.600;2024-01-27T00:19:01;7.10;76.36
76577;DHT22;65441;44.748;37.600;2024-01-27T00:21:30;6.79;80.86
76577;DHT22;65441;44.748;37.600;2024-01-27T00:24:01;6.66;77.85
76577;DHT22;65441;44.748;37.600;2024-01-27T00:26:29;6.28;78.64
76577;DHT22;65441;44.748;37.600;2024-01-27T00:28:58;6.23;84.51
76577;DHT22;65441;44.748;37.600;2024-01-27T00:31:26;6.26;83.70
76577;DHT22;65441;44.748;37.600;2024-01-27T00:33:54;6.44;84.39
76577;DHT22;65441;44.748;37.600;2024-01-27T00:36:23;6.15;83.00
76577;DHT22;65441;44.748;37.600;2024-01-27T00:38:54;6.24;81.26
76577;DHT22;65441;44.748;37.600;2024-01-27T00:41:24;6.70;87.00
76577;DHT22;65441;44.748;37.600;2024-01-27T00:43:53;7.38;87.40
76577;DHT22;65441;44.748;37.600;2024-01-27T00:46:21;7.60;83.72
76577;DHT22;65441;44.748;37.600;2024-01-27T00:48:49;7.59;83.58
76577;DHT22;65441;44.748;37.600;2024-01-27T00:51:19;7.56;80.20
76577;DHT22;65441;44.748;37.600;2024-01-27T00:53:47;7.45;81.62
76577;DHT22;65441;44.748;37.600;2024-01-27T00:56:15;7.42;81.23
76577;DHT22;65441;44.748;37.600;2024-01-27T00:58:45;7.68;81.17
76577;DHT22;65441;44.748;37.600;2024-01-27T01:01:13;7.58;81.42
76577;DHT22;65441;44.748;37.600;2024-01-27T01:03:41;8.00;82.75
76577;DHT22;65441;44.748;37.600;2024-01-27T01:06:09;8.09;81.85
76577;DHT22;65441;44.748;37.600;2024-01-27T01:08:39;8.14;81.15
76577;DHT22;65441;44.748;37.600;2024-01-27T01:11:07;8.18;78.15
76577;DHT22;65441;44.748;37.600;2024-01-27T01:13:36;8.13;77.70
76577;DHT22;65441;44.748;37.600;2024-01-27T01:16:06;8.22;78.95
76577;DHT22;65441;44.748;37.600;2024-01-27T01:18:36;8.15;78.55
76577;DHT22;65441;44.748;37.600;2024-01-27T01:21:04;8.09;78.26
76577;DHT22;65441;44.748;37.600;2024-01-27T01:23:32;8.36;81.50
76577;DHT22;65441;44.748;37.600;2024-01-27T01:26:00;8.19;80.70
76577;DHT22;65441;44.748;37.600;2024-01-27T01:28:29;8.35;80.62
76577;DHT22;65441;44.748;37.600;2024-01-27T01:30:58;8.05;78.11
76577;DHT22;65441;44.748;37.600;2024-01-27T01:33:28;8.18;80.27
76577;DHT22;65441;44.748;37.600;2024-01-27T01:35:57;8.07;78.53
76577;DHT22;65441;44.748;37.600;2024-01-27T01:38:26;8.06;79.24
76577;DHT22;65441;44.748;37.600;2024-01-27T01:40:54;8.01;80.21
76577;DHT22;65441;44.748;37.600;2024-01-27T01:43:22;8.18;83.58
76577;DHT22;65441;44.748;37.600;2024-01-27T01:45:51;7.96;77.48
76577;DHT22;65441;44.748;37.600;2024-01-27T01:48:20;8.12;82.25
76577;DHT22;65441;44.748;37.600;2024-01-27T01:50:51;8.18;79.62
76577;DHT22;65441;44.748;37.600;2024-01-27T01:53:19;8.31;81.59
76577;DHT22;65441;44.748;37.600;2024-01-27T01:55:47;8.47;81.96
76577;DHT22;65441;44.748;37.600;2024-01-27T01:58:17;8.65;81.56
76577;DHT22;65441;44.748;37.600;2024-01-27T02:00:44;8.53;80.51
76577;DHT22;65441;44.748;37.600;2024-01-27T02:03:12;8.38;78.65
76577;DHT22;65441;44.748;37.600;2024-01-27T02:05:41;8.66;82.13
76577;DHT22;65441;44.748;37.600;2024-01-27T02:08:10;8.58;78.56
76577;DHT22;65441;44.748;37.600;2024-01-27T02:10:38;8.39;81.01
76577;DHT22;65441;44.748;37.600;2024-01-27T02:13:16;8.38;79.08
76577;DHT22;65441;44.748;37.600;2024-01-27T02:15:45;8.50;80.18
76577;DHT22;65441;44.748;37.600;2024-01-27T02:18:13;8.62;78.74
76577;DHT22;65441;44.748;37.600;2024-01-27T02:20:41;8.34;77.08
76577;DHT22;65441;44.748;37.600;2024-01-27T02:23:11;8.26;81.27
76577;DHT22;65441;44.748;37.600;2024-01-27T02:25:41;8.22;78.31
76577;DHT22;65441;44.748;37.600;2024-01-27T02:28:09;8.39;81.09
76577;DHT22;65441;44.748;37.600;2024-01-27T02:30:39;8.41;80.74
76577;DHT22;65441;44.748;37.600;2024-01-27T02:33:07;8.39;79.78
76577;DHT22;65441;44.748;37.600;2024-01-27T02:35:35;8.47;81.95
76577;DHT22;65441;44.748;37.600;2024-01-27T02:38:04;8.26;76.53
76577;DHT22;65441;44.748;37.600;2024-01-27T02:40:32;8.21;79.96
76577;DHT22;65441;44.748;37.600;2024-01-27T02:43:03;8.26;78.82
76577;DHT22;65441;44.748;37.600;2024-01-27T02:45:31;8.03;77.34
76577;DHT22;65441;44.748;37.600;2024-01-27T02:48:00;8.06;80.61
76577;DHT22;65441;44.748;37.600;2024-01-27T02:50:28;7.98;80.79
76577;DHT22;65441;44.748;37.600;2024-01-27T02:52:56;8.07;80.90
76577;DHT22;65441;44.748;37.600;2024-01-27T02:55:25;8.04;82.36
76577;DHT22;65441;44.748;37.600;2024-01-27T02:57:53;7.98;83.01
76577;DHT22;65441;44.748;37.600;2024-01-27T03:00:22;7.69;83.00
76577;DHT22;65441;44.748;37.600;2024-01-27T03:02:51;7.67;80.82
76577;DHT22;65441;44.748;37.600;2024-01-27T03:05:19;7.58;79.56
76577;DHT22;65441;44.748;37.600;2024-01-27T03:07:47;7.72;80.96
76577;DHT22;65441;44.748;37.600;2024-01-27T03:10:15;7.57;77.43
76577;DHT22;65441;44.748;37.600;2024-01-27T03:12:43;7.82;78.81
76577;DHT22;65441;44.748;37.600;2024-01-27T03:15:12;7.91;80.29
76577;DHT22;65441;44.748;37.600;2024-01-27T03:17:41;7.91;80.66
76577;DHT22;65441;44.748;37.600;2024-01-27T03:20:11;7.97;81.93
76577;DHT22;65441;44.748;37.600;2024-01-27T03:22:39;7.90;82.70
76577;DHT22;65441;44.748;37.600;2024-01-27T03:25:09;7.32;77.15
76577;DHT22;65441;44.748;37.600;2024-01-27T03:27:37;6.66;78.54
76577;DHT22;65441;44.748;37.600;2024-01-27T03:30:06;6.01;81.79
76577;DHT22;65441;44.748;37.600;2024-01-27T03:32:37;6.71;86.12
76577;DHT22;65441;44.748;37.600;2024-01-27T03:35:09;6.79;86.34
76577;DHT22;65441;44.748;37.600;2024-01-27T03:37:51;7.25;84.57
76577;DHT22;65441;44.748;37.600;2024-01-27T03:40:20;7.50;84.87
76577;DHT22;65441;44.748;37.600;2024-01-27T03:42:48;7.54;85.49
76577;DHT22;65441;44.748;37.600;2024-01-27T03:45:16;7.71;83.81
76577;DHT22;65441;44.748;37.600;2024-01-27T03:47:44;7.98;85.45
76577;DHT22;65441;44.748;37.600;2024-01-27T03:50:16;7.89;82.41
76577;DHT22;65441;44.748;37.600;2024-01-27T03:52:44;8.06;81.17
76577;DHT22;65441;44.748;37.600;2024-01-27T03:55:15;8.17;83.78
76577;DHT22;65441;44.748;37.600;2024-01-27T03:57:43;8.15;82.58
76577;DHT22;65441;44.748;37.600;2024-01-27T04:00:12;8.20;78.51
76577;DHT22;65441;44.748;37.600;2024-01-27T04:02:42;8.59;81.39
76577;DHT22;65441;44.748;37.600;2024-01-27T04:05:11;8.64;79.22
76577;DHT22;65441;44.748;37.600;2024-01-27T04:07:41;8.63;78.16
76577;DHT22;65441;44.748;37.600;2024-01-27T04:10:10;8.57;79.12
76577;DHT22;65441;44.748;37.600;2024-01-27T04:12:37;8.71;77.43
76577;DHT22;65441;44.748;37.600;2024-01-27T04:15:06;8.44;78.11
76577;DHT22;65441;44.748;37.600;2024-01-27T04:17:34;8.26;81.04
76577;DHT22;65441;44.748;37.600;2024-01-27T04:20:03;8.42;79.55
76577;DHT22;65441;44.748;37.600;2024-01-27T04:22:34;8.37;76.19
76577;DHT22;65441;44.748;37.600;2024-01-27T04:25:06;8.55;77.79
76577;DHT22;65441;44.748;37.600;2024-01-27T04:27:37;8.22;75.25
76577;DHT22;65441;44.748;37.600;2024-01-27T04:30:10;7.96;79.46
76577;DHT22;65441;44.748;37.600;2024-01-27T04:32:38;7.86;74.23
76577;DHT22;65441;44.748;37.600;2024-01-27T04:35:09;8.03;78.13
76577;DHT22;65441;44.748;37.600;2024-01-27T04:37:37;8.03;80.49
76577;DHT22;65441;44.748;37.600;2024-01-27T04:40:08;8.22;80.96
76577;DHT22;65441;44.748;37.600;2024-01-27T04:42:38;8.22;78.22
76577;DHT22;65441;44.748;37.600;2024-01-27T04:45:07;8.32;83.23
76577;DHT22;65441;44.748;37.600;2024-01-27T04:47:35;8.36;80.50
76577;DHT22;65441;44.748;37.600;2024-01-27T04:50:04;8.18;78.59
76577;DHT22;65441;44.748;37.600;2024-01-27T04:52:32;7.87;74.80
76577;DHT22;65441;44.748;37.600;2024-01-27T04:55:00;7.74;76.82
76577;DHT22;65441;44.748;37.600;2024-01-27T04:57:31;7.96;81.13
76577;DHT22;65441;44.748;37.600;2024-01-27T05:00:00;8.12;78.13
76577;DHT22;65441;44.748;37.600;2024-01-27T05:02:28;7.92;74.97
76577;DHT22;65441;44.748;37.600;2024-01-27T05:04:56;7.77;77.75
76577;DHT22;65441;44.748;37.600;2024-01-27T05:07:25;7.59;81.22
76577;DHT22;65441;44.748;37.600;2024-01-27T05:09:53;7.04;75.12
76577;DHT22;65441;44.748;37.600;2024-01-27T05:12:21;6.79;78.29
76577;DHT22;65441;44.748;37.600;2024-01-27T05:14:51;6.93;82.17
76577;DHT22;65441;44.748;37.600;2024-01-27T05:17:19;6.83;82.78
76577;DHT22;65441;44.748;37.600;2024-01-27T05:19:50;7.19;82.55
76577;DHT22;65441;44.748;37.600;2024-01-27T05:22:18;7.45;81.85
76577;DHT22;65441;44.748;37.600;2024-01-27T05:24:48;7.49;80.88
76577;DHT22;65441;44.748;37.600;2024-01-27T05:27:17;7.60;80.08
76577;DHT22;65441;44.748;37.600;2024-01-27T05:29:45;7.68;78.94
76577;DHT22;65441;44.748;37.600;2024-01-27T05:32:15;7.56;76.13
76577;DHT22;65441;44.748;37.600;2024-01-27T05:34:43;7.70;78.40
76577;DHT22;65441;44.748;37.600;2024-01-27T05:37:13;7.97;80.65
76577;DHT22;65441;44.748;37.600;2024-01-27T05:39:41;8.52;74.23
76577;DHT22;65441;44.748;37.600;2024-01-27T05:42:10;8.88;75.59
76577;DHT22;65441;44.748;37.600;2024-01-27T05:44:39;8.42;74.34
76577;DHT22;65441;44.748;37.600;2024-01-27T05:47:07;8.29;73.96
76577;DHT22;65441;44.748;37.600;2024-01-27T05:49:38;8.16;75.60
76577;DHT22;65441;44.748;37.600;2024-01-27T05:52:06;8.15;77.85
76577;DHT22;65441;44.748;37.600;2024-01-27T05:54:34;7.89;77.85
76577;DHT22;65441;44.748;37.600;2024-01-27T05:57:03;7.54;77.72
76577;DHT22;65441;44.748;37.600;2024-01-27T05:59:31;7.38;77.67
76577;DHT22;65441;44.748;37.600;2024-01-27T06:02:01;7.20;80.76
76577;DHT22;65441;44.748;37.600;2024-01-27T06:04:29;6.90;76.05
76577;DHT22;65441;44.748;37.600;2024-01-27T06:07:00;6.58;77.89
76577;DHT22;65441;44.748;37.600;2024-01-27T06:09:31;6.49;78.11
76577;DHT22;65441;44.748;37.600;2024-01-27T06:11:59;6.61;78.50
76577;DHT22;65441;44.748;37.600;2024-01-27T06:14:28;7.63;86.01
76577;DHT22;65441;44.748;37.600;2024-01-27T06:16:56;8.11;85.42
76577;DHT22;65441;44.748;37.600;2024-01-27T06:19:24;8.68;82.42
76577;DHT22;65441;44.748;37.600;2024-01-27T06:21:55;8.92;79.95
76577;DHT22;65441;44.748;37.600;2024-01-27T06:24:28;9.20;79.95
76577;DHT22;65441;44.748;37.600;2024-01-27T06:26:58;10.21;76.89
76577;DHT22;65441;44.748;37.600;2024-01-27T06:29:26;10.63;71.75
76577;DHT22;65441;44.748;37.600;2024-01-27T06:31:55;9.77;67.49
76577;DHT22;65441;44.748;37.600;2024-01-27T06:34:26;8.83;70.36
76577;DHT22;65441;44.748;37.600;2024-01-27T06:36:55;8.20;73.40
76577;DHT22;65441;44.748;37.600;2024-01-27T06:39:24;8.01;75.21
76577;DHT22;65441;44.748;37.600;2024-01-27T06:41:52;7.58;76.10
76577;DHT22;65441;44.748;37.600;2024-01-27T06:44:21;7.24;77.59
76577;DHT22;65441;44.748;37.600;2024-01-27T06:46:50;7.08;78.61
76577;DHT22;65441;44.748;37.600;2024-01-27T06:49:18;6.85;79.21
76577;DHT22;65441;44.748;37.600;2024-01-27T06:51:46;6.79;80.49
76577;DHT22;65441;44.748;37.600;2024-01-27T06:54:14;6.78;80.49
76577;DHT22;65441;44.748;37.600;2024-01-27T06:56:44;6.69;80.17
76577;DHT22;65441;44.748;37.600;2024-01-27T06:59:12;6.58;81.23
76577;DHT22;65441;44.748;37.600;2024-01-27T07:01:45;6.56;81.72
76577;DHT22;65441;44.748;37.600;2024-01-27T07:04:15;6.42;81.91
76577;DHT22;65441;44.748;37.600;2024-01-27T07:06:44;6.57;82.47
76577;DHT22;65441;44.748;37.600;2024-01-27T07:09:12;6.38;81.81
76577;DHT22;65441;44.748;37.600;2024-01-27T07:11:40;6.16;81.41
76577;DHT22;65441;44.748;37.600;2024-01-27T07:14:10;6.15;82.90
76577;DHT22;65441;44.748;37.600;2024-01-27T07:16:38;6.23;84.10
76577;DHT22;65441;44.748;37.600;2024-01-27T07:19:10;6.34;83.26
76577;DHT22;65441;44.748;37.600;2024-01-27T07:21:40;6.21;83.81
76577;DHT22;65441;44.748;37.600;2024-01-27T07:24:08;6.31;82.98
76577;DHT22;65441;44.748;37.600;2024-01-27T07:26:36;6.34;82.63
76577;DHT22;65441;44.748;37.600;2024-01-27T07:29:04;6.52;83.84
76577;DHT22;65441;44.748;37.600;2024-01-27T07:31:35;6.29;81.43
76577;DHT22;65441;44.748;37.600;2024-01-27T07:34:04;6.38;84.20
76577;DHT22;65441;44.748;37.600;2024-01-27T07:36:32;6.38;83.85
76577;DHT22;65441;44.748;37.600;2024-01-27T07:39:00;6.41;83.12
76577;DHT22;65441;44.748;37.600;2024-01-27T07:41:31;6.37;82.71
76577;DHT22;65441;44.748;37.600;2024-01-27T07:44:07;6.44;83.85
76577;DHT22;65441;44.748;37.600;2024-01-27T07:46:38;6.48;81.65
76577;DHT22;65441;44.748;37.600;2024-01-27T07:49:07;6.57;83.52
76577;DHT22;65441;44.748;37.600;2024-01-27T07:51:38;6.59;83.57
76577;DHT22;65441;44.748;37.600;2024-01-27T07:54:09;6.57;83.52
76577;DHT22;65441;44.748;37.600;2024-01-27T07:56:40;6.69;83.59
76577;DHT22;65441;44.748;37.600;2024-01-27T07:59:16;6.45;83.35
76577;DHT22;65441;44.748;37.600;2024-01-27T08:01:47;6.43;83.42
76577;DHT22;65441;44.748;37.600;2024-01-27T08:04:16;6.46;83.85
76577;DHT22;65441;44.748;37.600;2024-01-27T08:06:50;6.60;83.54
76577;DHT22;65441;44.748;37.600;2024-01-27T08:09:18;6.56;83.12
76577;DHT22;65441;44.748;37.600;2024-01-27T08:11:51;6.57;82.41
76577;DHT22;65441;44.748;37.600;2024-01-27T08:14:20;6.60;83.65
76577;DHT22;65441;44.748;37.600;2024-01-27T08:16:50;6.65;83.10
76577;DHT22;65441;44.748;37.600;2024-01-27T08:19:18;6.65;81.95
76577;DHT22;65441;44.748;37.600;2024-01-27T08:21:47;6.64;82.42
76577;DHT22;65441;44.748;37.600;2024-01-27T08:24:18;6.78;82.64
76577;DHT22;65441;44.748;37.600;2024-01-27T08:26:49;6.74;81.23
76577;DHT22;65441;44.748;37.600;2024-01-27T08:29:20;6.74;81.53
76577;DHT22;65441;44.748;37.600;2024-01-27T08:31:49;6.88;82.52
76577;DHT22;65441;44.748;37.600;2024-01-27T08:34:18;6.83;81.56
76577;DHT22;65441;44.748;37.600;2024-01-27T08:36:46;6.87;81.52
76577;DHT22;65441;44.748;37.600;2024-01-27T08:39:15;6.99;81.75
76577;DHT22;65441;44.748;37.600;2024-01-27T08:41:43;7.10;81.49
76577;DHT22;65441;44.748;37.600;2024-01-27T08:44:12;6.97;81.17
76577;DHT22;65441;44.748;37.600;2024-01-27T08:46:40;6.86;82.22
76577;DHT22;65441;44.748;37.600;2024-01-27T08:49:10;6.93;81.75
76577;DHT22;65441;44.748;37.600;2024-01-27T08:51:38;6.99;81.71
76577;DHT22;65441;44.748;37.600;2024-01-27T08:54:06;7.08;80.01
76577;DHT22;65441;44.748;37.600;2024-01-27T08:56:39;7.09;79.82
76577;DHT22;65441;44.748;37.600;2024-01-27T08:59:07;7.03;79.91
76577;DHT22;65441;44.748;37.600;2024-01-27T09:01:36;6.98;80.93
76577;DHT22;65441;44.748;37.600;2024-01-27T09:04:04;6.99;81.18
76577;DHT22;65441;44.748;37.600;2024-01-27T09:06:35;7.14;81.49
76577;DHT22;65441;44.748;37.600;2024-01-27T09:09:03;7.33;81.43
76577;DHT22;65441;44.748;37.600;2024-01-27T09:11:31;7.35;79.22
76577;DHT22;65441;44.748;37.600;2024-01-27T09:14:06;7.29;80.26
76577;DHT22;65441;44.748;37.600;2024-01-27T09:16:35;7.44;80.40
76577;DHT22;65441;44.748;37.600;2024-01-27T09:19:03;7.39;80.40
76577;DHT22;65441;44.748;37.600;2024-01-27T09:21:31;7.45;78.85
76577;DHT22;65441;44.748;37.600;2024-01-27T09:24:01;7.65;80.81
76577;DHT22;65441;44.748;37.600;2024-01-27T09:26:30;7.64;79.88
76577;DHT22;65441;44.748;37.600;2024-01-27T09:28:58;7.49;80.36
76577;DHT22;65441;44.748;37.600;2024-01-27T09:31:27;7.43;77.14
76577;DHT22;65441;44.748;37.600;2024-01-27T09:33:55;7.33;77.79
76577;DHT22;65441;44.748;37.600;2024-01-27T09:36:23;7.52;80.07
76577;DHT22;65441;44.748;37.600;2024-01-27T09:38:51;7.39;77.83
76577;DHT22;65441;44.748;37.600;2024-01-27T09:41:22;7.27;79.47
76577;DHT22;65441;44.748;37.600;2024-01-27T09:43:54;7.34;79.46
76577;DHT22;65441;44.748;37.600;2024-01-27T09:46:23;7.43;80.05
76577;DHT22;65441;44.748;37.600;2024-01-27T09:48:52;7.34;76.82
76577;DHT22;65441;44.748;37.600;2024-01-27T09:51:20;7.28;79.48
76577;DHT22;65441;44.748;37.600;2024-01-27T09:53:49;7.24;78.73
76577;DHT22;65441;44.748;37.600;2024-01-27T09:56:19;7.38;79.38
76577;DHT22;65441;44.748;37.600;2024-01-27T09:58:50;7.49;78.87
76577;DHT22;65441;44.748;37.600;2024-01-27T10:01:21;7.41;76.37
76577;DHT22;65441;44.748;37.600;2024-01-27T10:03:52;7.52;76.11
76577;DHT22;65441;44.748;37.600;2024-01-27T10:06:23;7.39;76.98
76577;DHT22;65441;44.748;37.600;2024-01-27T10:08:53;7.45;77.90
76577;DHT22;65441;44.748;37.600;2024-01-27T10:11:24;7.55;77.92
76577;DHT22;65441;44.748;37.600;2024-01-27T10:13:57;7.57;77.15
76577;DHT22;65441;44.748;37.600;2024-01-27T10:16:26;7.60;77.30
76577;DHT22;65441;44.748;37.600;2024-01-27T10:19:01;7.57;77.44
76577;DHT22;65441;44.748;37.600;2024-01-27T10:21:30;7.62;77.24
76577;DHT22;65441;44.748;37.600;2024-01-27T10:23:59;7.55;78.73
76577;DHT22;65441;44.748;37.600;2024-01-27T10:26:32;7.47;78.24
76577;DHT22;65441;44.748;37.600;2024-01-27T10:29:04;7.49;78.29
76577;DHT22;65441;44.748;37.600;2024-01-27T10:31:33;7.30;77.73
76577;DHT22;65441;44.748;37.600;2024-01-27T10:34:02;7.24;77.79
76577;DHT22;65441;44.748;37.600;2024-01-27T10:36:39;7.31;79.03
76577;DHT22;65441;44.748;37.600;2024-01-27T10:39:17;7.34;77.51
76577;DHT22;65441;44.748;37.600;2024-01-27T10:41:48;7.46;77.88
76577;DHT22;65441;44.748;37.600;2024-01-27T10:44:18;7.40;77.72
76577;DHT22;65441;44.748;37.600;2024-01-27T10:46:48;7.41;77.13
76577;DHT22;65441;44.748;37.600;2024-01-27T10:49:17;7.45;78.06
76577;DHT22;65441;44.748;37.600;2024-01-27T10:51:46;7.41;77.44
76577;DHT22;65441;44.748;37.600;2024-01-27T10:54:23;7.41;77.58
76577;DHT22;65441;44.748;37.600;2024-01-27T10:56:51;7.43;77.27
76577;DHT22;65441;44.748;37.600;2024-01-27T10:59:22;7.29;78.20
76577;DHT22;65441;44.748;37.600;2024-01-27T11:01:52;7.27;78.83
76577;DHT22;65441;44.748;37.600;2024-01-27T11:04:21;7.28;76.40
76577;DHT22;65441;44.748;37.600;2024-01-27T11:06:49;7.38;76.94
76577;DHT22;65441;44.748;37.600;2024-01-27T11:09:18;7.25;76.50
76577;DHT22;65441;44.748;37.600;2024-01-27T11:11:47;7.25;75.06
76577;DHT22;65441;44.748;37.600;2024-01-27T11:14:16;7.11;76.38
76577;DHT22;65441;44.748;37.600;2024-01-27T11:16:45;7.22;75.76
76577;DHT22;65441;44.748;37.600;2024-01-27T11:19:14;7.29;75.54
76577;DHT22;65441;44.748;37.600;2024-01-27T11:21:44;7.24;75.81
76577;DHT22;65441;44.748;37.600;2024-01-27T11:24:14;7.25;76.72
76577;DHT22;65441;44.748;37.600;2024-01-27T11:26:45;7.34;75.71
76577;DHT22;65441;44.748;37.600;2024-01-27T11:29:13;7.30;72.21
76577;DHT22;65441;44.748;37.600;2024-01-27T11:31:48;7.46;74.51
76577;DHT22;65441;44.748;37.600;2024-01-27T11:34:18;7.40;74.84
76577;DHT22;65441;44.748;37.600;2024-01-27T11:36:46;7.54;74.18
76577;DHT22;65441;44.748;37.600;2024-01-27T11:39:25;7.53;75.52
76577;DHT22;65441;44.748;37.600;2024-01-27T11:42:04;7.61;75.84
76577;DHT22;65441;44.748;37.600;2024-01-27T11:44:34;7.52;74.86
76577;DHT22;65441;44.748;37.600;2024-01-27T11:47:05;7.58;73.88
76577;DHT22;65441;44.748;37.600;2024-01-27T11:49:33;7.38;74.25
76577;DHT22;65441;44.748;37.600;2024-01-27T11:52:02;7.34;74.62
76577;DHT22;65441;44.748;37.600;2024-01-27T11:54:30;7.39;73.70
76577;DHT22;65441;44.748;37.600;2024-01-27T11:56:59;7.41;73.76
76577;DHT22;65441;44.748;37.600;2024-01-27T11:59:27;7.38;72.25
76577;DHT22;65441;44.748;37.600;2024-01-27T12:01:55;7.18;72.33
76577;DHT22;65441;44.748;37.600;2024-01-27T12:04:27;7.22;75.19
76577;DHT22;65441;44.748;37.600;2024-01-27T12:06:59;7.16;74.42
76577;DHT22;65441;44.748;37.600;2024-01-27T12:09:27;7.13;74.19
76577;DHT22;65441;44.748;37.600;2024-01-27T12:11:55;7.14;73.93
76577;DHT22;65441;44.748;37.600;2024-01-27T12:14:23;7.17;74.04
76577;DHT22;65441;44.748;37.600;2024-01-27T12:16:52;7.02;73.77
76577;DHT22;65441;44.748;37.600;2024-01-27T12:19:21;7.10;74.51
76577;DHT22;65441;44.748;37.600;2024-01-27T12:21:53;7.03;74.64
76577;DHT22;65441;44.748;37.600;2024-01-27T12:24:21;6.97;74.31
76577;DHT22;65441;44.748;37.600;2024-01-27T12:26:54;7.01;74.83
76577;DHT22;65441;44.748;37.600;2024-01-27T12:29:25;7.09;74.84
76577;DHT22;65441;44.748;37.600;2024-01-27T12:31:54;7.15;74.68
76577;DHT22;65441;44.748;37.600;2024-01-27T12:34:24;7.11;73.21
76577;DHT22;65441;44.748;37.600;2024-01-27T12:36:54;7.10;75.02
76577;DHT22;65441;44.748;37.600;2024-01-27T12:39:22;7.27;73.55
76577;DHT22;65441;44.748;37.600;2024-01-27T12:41:50;7.29;73.36
76577;DHT22;65441;44.748;37.600;2024-01-27T12:44:19;7.26;72.24
76577;DHT22;65441;44.748;37.600;2024-01-27T12:46:47;7.20;69.79
76577;DHT22;65441;44.748;37.600;2024-01-27T12:49:15;7.03;72.42
76577;DHT22;65441;44.748;37.600;2024-01-27T12:51:43;7.04;71.02
76577;DHT22;65441;44.748;37.600;2024-01-27T12:54:13;7.24;73.71
76577;DHT22;65441;44.748;37.600;2024-01-27T12:56:45;7.20;71.48
76577;DHT22;65441;44.748;37.600;2024-01-27T12:59:13;7.32;72.99
76577;DHT22;65441;44.748;37.600;2024-01-27T13:01:42;7.38;71.54
76577;DHT22;65441;44.748;37.600;2024-01-27T13:04:10;7.48;72.69
76577;DHT22;65441;44.748;37.600;2024-01-27T13:06:38;7.44;72.94
76577;DHT22;65441;44.748;37.600;2024-01-27T13:09:06;7.46;72.28
76577;DHT22;65441;44.748;37.600;2024-01-27T13:11:39;7.42;72.96
76577;DHT22;65441;44.748;37.600;2024-01-27T13:14:09;7.38;72.93
76577;DHT22;65441;44.748;37.600;2024-01-27T13:16:39;7.43;74.15
76577;DHT22;65441;44.748;37.600;2024-01-27T13:19:07;7.41;72.70
76577;DHT22;65441;44.748;37.600;2024-01-27T13:21:35;7.29;70.98
76577;DHT22;65441;44.748;37.600;2024-01-27T13:24:04;7.33;72.42
76577;DHT22;65441;44.748;37.600;2024-01-27T13:26:33;7.19;72.88
76577;DHT22;65441;44.748;37.600;2024-01-27T13:29:06;7.04;72.42
76577;DHT22;65441;44.748;37.600;2024-01-27T13:31:34;6.87;72.45
76577;DHT22;65441;44.748;37.600;2024-01-27T13:34:03;6.81;73.56
76577;DHT22;65441;44.748;37.600;2024-01-27T13:36:31;6.81;73.50
76577;DHT22;65441;44.748;37.600;2024-01-27T13:39:03;6.66;73.25
76577;DHT22;65441;44.748;37.600;2024-01-27T13:41:31;6.71;74.27
76577;DHT22;65441;44.748;37.600;2024-01-27T13:44:03;6.65;73.99
76577;DHT22;65441;44.748;37.600;2024-01-27T13:46:33;6.60;73.53
76577;DHT22;65441;44.748;37.600;2024-01-27T13:49:02;6.46;73.61
76577;DHT22;65441;44.748;37.600;2024-01-27T13:51:30;6.50;74.55
76577;DHT22;65441;44.748;37.600;2024-01-27T13:53:59;6.28;74.14
76577;DHT22;65441;44.748;37.600;2024-01-27T13:56:27;6.21;74.35
76577;DHT22;65441;44.748;37.600;2024-01-27T13:59:22;6.10;73.74
76577;DHT22;65441;44.748;37.600;2024-01-27T14:02:03;6.06;74.99
76577;DHT22;65441;44.748;37.600;2024-01-27T14:04:33;6.13;75.38
76577;DHT22;65441;44.748;37.600;2024-01-27T14:07:04;6.07;74.25
76577;DHT22;65441;44.748;37.600;2024-01-27T14:09:35;6.00;74.35
76577;DHT22;65441;44.748;37.600;2024-01-27T14:12:06;5.94;74.41
76577;DHT22;65441;44.748;37.600;2024-01-27T14:14:36;5.96;74.92
76577;DHT22;65441;44.748;37.600;2024-01-27T14:17:09;5.90;75.17
76577;DHT22;65441;44.748;37.600;2024-01-27T14:19:37;5.76;75.09
76577;DHT22;65441;44.748;37.600;2024-01-27T14:22:06;5.76;75.25
76577;DHT22;65441;44.748;37.600;2024-01-27T14:24:35;5.74;75.61
76577;DHT22;65441;44.748;37.600;2024-01-27T14:27:03;5.72;75.03
76577;DHT22;65441;44.748;37.600;2024-01-27T14:29:31;5.72;76.15
76577;DHT22;65441;44.748;37.600;2024-01-27T14:32:01;5.70;75.21
76577;DHT22;65441;44.748;37.600;2024-01-27T14:34:33;5.69;75.13
76577;DHT22;65441;44.748;37.600;2024-01-27T14:37:05;5.63;75.52
76577;DHT22;65441;44.748;37.600;2024-01-27T14:39:33;6.06;87.03
76577;DHT22;65441;44.748;37.600;2024-01-27T14:42:03;7.09;89.42
76577;DHT22;65441;44.748;37.600;2024-01-27T14:44:34;7.94;88.01
76577;DHT22;65441;44.748;37.600;2024-01-27T14:47:04;8.57;84.42
76577;DHT22;65441;44.748;37.600;2024-01-27T14:49:37;8.77;76.01
76577;DHT22;65441;44.748;37.600;2024-01-27T14:52:05;8.72;74.87
76577;DHT22;65441;44.748;37.600;2024-01-27T14:54:34;9.03;81.77
76577;DHT22;65441;44.748;37.600;2024-01-27T14:57:03;8.56;67.32
76577;DHT22;65441;44.748;37.600;2024-01-27T14:59:33;8.50;71.80
76577;DHT22;65441;44.748;37.600;2024-01-27T15:02:01;8.65;76.53
76577;DHT22;65441;44.748;37.600;2024-01-27T15:04:29;9.15;77.90
76577;DHT22;65441;44.748;37.600;2024-01-27T15:06:59;9.19;64.43
76577;DHT22;65441;44.748;37.600;2024-01-27T15:09:27;9.48;77.77
76577;DHT22;65441;44.748;37.600;2024-01-27T15:11:55;9.18;65.92
76577;DHT22;65441;44.748;37.600;2024-01-27T15:14:25;9.19;72.42
76577;DHT22;65441;44.748;37.600;2024-01-27T15:16:53;9.15;71.32
76577;DHT22;65441;44.748;37.600;2024-01-27T15:19:24;9.10;68.06
76577;DHT22;65441;44.748;37.600;2024-01-27T15:21:52;8.18;64.31
76577;DHT22;65441;44.748;37.600;2024-01-27T15:24:22;7.43;65.78
76577;DHT22;65441;44.748;37.600;2024-01-27T15:26:52;6.93;68.65
76577;DHT22;65441;44.748;37.600;2024-01-27T15:29:20;6.57;69.88
76577;DHT22;65441;44.748;37.600;2024-01-27T15:31:51;6.24;70.70
76577;DHT22;65441;44.748;37.600;2024-01-27T15:34:21;5.99;71.91
76577;DHT22;65441;44.748;37.600;2024-01-27T15:36:50;5.83;72.58
76577;DHT22;65441;44.748;37.600;2024-01-27T15:39:18;5.78;73.40
76577;DHT22;65441;44.748;37.600;2024-01-27T15:41:48;5.66;73.91
76577;DHT22;65441;44.748;37.600;2024-01-27T15:44:16;5.52;73.39